createdAt,value
2019-03-09T00:01:59.684Z,9.60
2019-03-09T00:04:27.350Z,9.60
2019-03-09T00:06:55.138Z,9.60
2019-03-09T00:09:22.806Z,9.60
2019-03-09T00:11:50.593Z,9.70
2019-03-09T00:14:18.959Z,9.70
2019-03-09T00:16:46.677Z,9.70
2019-03-09T00:19:14.337Z,9.70
2019-03-09T00:21:42.065Z,9.70
2019-03-09T00:24:31.250Z,9.80
2019-03-09T00:27:03.061Z,9.80
2019-03-09T00:29:51.789Z,10.00
2019-03-09T00:32:22.927Z,9.90
2019-03-09T00:34:50.656Z,10.00
2019-03-09T00:37:18.421Z,10.00
2019-03-09T00:39:46.177Z,10.00
2019-03-09T00:42:13.874Z,10.00
2019-03-09T00:44:41.536Z,9.90
2019-03-09T00:47:09.398Z,9.90
2019-03-09T00:49:37.249Z,9.90
2019-03-09T00:52:05.016Z,10.00
2019-03-09T00:54:32.753Z,9.80
2019-03-09T00:57:00.707Z,9.90
2019-03-09T00:59:28.516Z,9.90
2019-03-09T01:01:56.217Z,9.90
2019-03-09T01:04:24.253Z,9.90
2019-03-09T01:06:51.913Z,10.10
2019-03-09T01:09:19.631Z,10.10
2019-03-09T01:11:47.419Z,10.20
2019-03-09T01:14:15.078Z,10.40
2019-03-09T01:16:42.759Z,10.40
2019-03-09T01:19:10.713Z,10.40
2019-03-09T01:21:38.411Z,10.30
2019-03-09T01:24:06.179Z,10.20
2019-03-09T01:26:33.851Z,10.30
2019-03-09T01:29:01.499Z,10.30
2019-03-09T01:31:30.126Z,10.30
2019-03-09T01:33:57.941Z,10.30
2019-03-09T01:36:25.659Z,10.30
2019-03-09T01:38:53.416Z,10.20
2019-03-09T01:41:21.089Z,10.30
2019-03-09T01:43:48.800Z,10.30
2019-03-09T01:46:18.541Z,10.30
2019-03-09T01:48:46.243Z,10.20
2019-03-09T01:51:14.610Z,10.30
2019-03-09T01:53:42.346Z,10.20
2019-03-09T01:56:10.054Z,10.30
2019-03-09T01:58:37.728Z,10.40
2019-03-09T02:01:05.415Z,10.30
2019-03-09T02:03:33.188Z,10.30
2019-03-09T02:06:01.164Z,10.30
2019-03-09T02:08:28.836Z,10.30
2019-03-09T02:10:56.541Z,10.30
2019-03-09T02:13:24.462Z,10.40
2019-03-09T02:15:52.105Z,10.40
2019-03-09T02:18:20.805Z,10.30
2019-03-09T02:20:48.595Z,10.20
2019-03-09T02:23:16.340Z,10.20
2019-03-09T02:25:43.962Z,10.20
2019-03-09T02:28:11.644Z,10.20
2019-03-09T02:30:40.150Z,10.30
2019-03-09T02:33:08.233Z,10.30
2019-03-09T02:35:35.883Z,10.30
2019-03-09T02:38:11.634Z,10.30
2019-03-09T02:40:39.361Z,10.30
2019-03-09T02:43:07.107Z,10.30
2019-03-09T02:45:35.759Z,10.30
2019-03-09T02:48:03.436Z,10.30
2019-03-09T02:50:31.227Z,10.20
2019-03-09T02:52:58.930Z,10.20
2019-03-09T02:55:29.026Z,10.20
2019-03-09T02:57:56.700Z,10.20
2019-03-09T03:00:26.100Z,10.30
2019-03-09T03:02:56.880Z,10.30
2019-03-09T03:05:24.605Z,10.40
2019-03-09T03:07:52.406Z,10.30
2019-03-09T03:10:20.120Z,10.30
2019-03-09T03:12:47.740Z,10.40
2019-03-09T03:15:30.028Z,10.30
2019-03-09T03:17:57.865Z,10.20
2019-03-09T03:20:25.549Z,10.30
2019-03-09T03:22:53.271Z,10.30
2019-03-09T03:25:22.922Z,10.20
2019-03-09T03:27:50.688Z,10.20
2019-03-09T03:30:20.218Z,10.20
2019-03-09T03:32:48.152Z,10.30
2019-03-09T03:35:17.620Z,10.40
2019-03-09T03:37:45.341Z,10.40
2019-03-09T03:40:13.116Z,10.40
2019-03-09T03:42:40.770Z,10.40
2019-03-09T03:45:08.544Z,10.30
2019-03-09T03:47:36.370Z,10.20
2019-03-09T03:50:04.162Z,10.10
2019-03-09T03:52:31.814Z,10.00
2019-03-09T03:54:59.483Z,10.00
2019-03-09T03:57:27.153Z,10.00
2019-03-09T03:59:54.847Z,9.90
2019-03-09T04:02:22.492Z,9.80
2019-03-09T04:04:50.130Z,9.70
2019-03-09T04:07:17.806Z,9.70
2019-03-09T04:09:45.620Z,9.80
2019-03-09T04:12:13.290Z,9.80
2019-03-09T04:14:40.983Z,9.90
2019-03-09T04:17:08.621Z,9.70
2019-03-09T04:19:36.485Z,9.70
2019-03-09T04:22:05.347Z,9.50
2019-03-09T04:24:33.030Z,9.60
2019-03-09T04:27:00.741Z,9.50
2019-03-09T04:29:28.443Z,9.40
2019-03-09T04:31:56.094Z,9.40
2019-03-09T04:34:23.860Z,9.40
2019-03-09T04:36:58.381Z,9.30
2019-03-09T04:39:26.062Z,9.30
2019-03-09T04:41:53.856Z,9.30
2019-03-09T04:44:21.508Z,9.20
2019-03-09T04:46:49.156Z,9.10
2019-03-09T04:49:16.817Z,9.00
2019-03-09T04:51:44.528Z,9.00
2019-03-09T04:54:12.162Z,9.00
2019-03-09T04:56:39.830Z,9.00
2019-03-09T04:59:07.502Z,9.00
2019-03-09T05:01:35.189Z,9.10
2019-03-09T05:04:51.349Z,9.00
2019-03-09T05:08:07.730Z,8.90
2019-03-09T05:11:05.437Z,8.70
2019-03-09T05:14:03.785Z,8.80
2019-03-09T05:16:31.427Z,9.00
2019-03-09T05:18:59.125Z,9.00
2019-03-09T05:21:26.828Z,8.90
2019-03-09T05:23:54.552Z,9.00
2019-03-09T05:26:22.269Z,9.10
2019-03-09T05:28:49.918Z,9.00
2019-03-09T05:31:17.562Z,9.00
2019-03-09T05:33:46.418Z,9.00
2019-03-09T05:36:14.069Z,8.90
2019-03-09T05:38:42.748Z,8.70
2019-03-09T05:41:10.437Z,8.70
2019-03-09T05:43:38.150Z,8.70
2019-03-09T05:46:05.837Z,8.70
2019-03-09T05:48:33.510Z,8.70
2019-03-09T05:51:03.019Z,8.60
2019-03-09T05:53:30.705Z,8.70
2019-03-09T05:55:58.370Z,8.60
2019-03-09T05:58:26.186Z,8.70
2019-03-09T06:00:54.014Z,8.70
2019-03-09T06:03:21.655Z,8.60
2019-03-09T06:05:52.303Z,8.60
2019-03-09T06:08:21.745Z,8.60
2019-03-09T06:10:49.498Z,8.50
2019-03-09T06:13:18.385Z,8.40
2019-03-09T06:15:45.920Z,8.40
2019-03-09T06:18:13.604Z,8.50
2019-03-09T06:20:41.297Z,8.60
2019-03-09T06:23:09.024Z,8.60
2019-03-09T06:25:38.564Z,8.40
2019-03-09T06:28:06.265Z,8.40
2019-03-09T06:30:35.144Z,8.30
2019-03-09T06:33:19.182Z,8.40
2019-03-09T06:35:49.498Z,8.30
2019-03-09T06:39:05.066Z,8.20
2019-03-09T06:41:37.369Z,8.20
2019-03-09T06:44:05.121Z,8.20
2019-03-09T06:46:32.901Z,8.30
2019-03-09T06:49:01.508Z,8.30
2019-03-09T06:51:29.164Z,8.20
2019-03-09T06:53:56.841Z,8.10
2019-03-09T06:56:24.576Z,8.10
2019-03-09T06:58:52.240Z,8.10
2019-03-09T07:01:21.109Z,8.10
2019-03-09T07:03:48.892Z,8.10
2019-03-09T07:06:16.758Z,8.20
2019-03-09T07:08:44.538Z,8.20
2019-03-09T07:11:12.352Z,8.20
2019-03-09T07:13:40.461Z,8.20
2019-03-09T07:16:08.169Z,8.20
2019-03-09T07:18:38.624Z,8.40
2019-03-09T07:21:06.314Z,8.40
2019-03-09T07:23:35.157Z,8.40
2019-03-09T07:26:02.821Z,8.50
2019-03-09T07:28:30.629Z,8.50
2019-03-09T07:30:58.297Z,8.50
2019-03-09T07:33:25.974Z,8.50
2019-03-09T07:35:53.689Z,8.60
2019-03-09T07:38:21.404Z,8.60
2019-03-09T07:40:49.113Z,8.60
2019-03-09T07:43:16.835Z,8.80
2019-03-09T07:45:44.581Z,8.90
2019-03-09T07:48:12.304Z,9.00
2019-03-09T07:50:40.185Z,9.10
2019-03-09T07:53:09.450Z,9.30
2019-03-09T07:55:37.184Z,9.40
2019-03-09T07:58:06.709Z,9.50
2019-03-09T08:00:34.550Z,9.60
2019-03-09T08:03:02.496Z,9.60
2019-03-09T08:05:30.137Z,9.60
2019-03-09T08:07:57.998Z,9.60
2019-03-09T08:10:26.029Z,9.60
2019-03-09T08:12:53.842Z,9.60
2019-03-09T08:15:21.572Z,9.60
2019-03-09T08:17:49.477Z,9.80
2019-03-09T08:20:17.193Z,10.00
2019-03-09T08:22:45.503Z,10.20
2019-03-09T08:25:13.890Z,10.30
2019-03-09T08:27:41.827Z,10.40
2019-03-09T08:30:12.185Z,10.50
2019-03-09T08:32:41.152Z,10.50
2019-03-09T08:35:09.437Z,10.50
2019-03-09T08:37:37.149Z,10.50
2019-03-09T08:40:05.117Z,10.50
2019-03-09T08:42:32.950Z,10.50
2019-03-09T08:45:01.550Z,10.50
2019-03-09T08:47:29.463Z,10.60
2019-03-09T08:49:57.179Z,10.60
2019-03-09T08:52:25.083Z,10.70
2019-03-09T08:54:52.898Z,10.90
2019-03-09T08:57:21.696Z,11.00
2019-03-09T08:59:49.641Z,11.00
2019-03-09T09:02:17.681Z,11.00
2019-03-09T09:04:45.485Z,10.90
2019-03-09T09:07:13.249Z,10.90
2019-03-09T09:09:42.233Z,10.90
2019-03-09T09:12:09.954Z,11.00
2019-03-09T09:14:37.643Z,11.00
2019-03-09T09:17:06.421Z,10.90
2019-03-09T09:19:35.085Z,10.90
2019-03-09T09:22:02.907Z,11.00
2019-03-09T09:24:30.681Z,11.00
2019-03-09T09:26:58.762Z,11.10
2019-03-09T09:29:26.449Z,11.00
2019-03-09T09:31:54.138Z,11.00
2019-03-09T09:34:21.822Z,10.90
2019-03-09T09:36:49.573Z,10.90
2019-03-09T09:39:17.376Z,10.90
2019-03-09T09:41:45.411Z,10.90
2019-03-09T09:44:14.107Z,10.80
2019-03-09T09:46:41.849Z,10.90
2019-03-09T09:49:09.561Z,11.00
2019-03-09T09:51:37.333Z,10.90
2019-03-09T09:54:05.056Z,10.90
2019-03-09T09:56:32.722Z,10.90
2019-03-09T09:59:00.700Z,10.90
2019-03-09T10:01:28.391Z,11.00
2019-03-09T10:03:56.123Z,11.00
2019-03-09T10:06:23.887Z,10.90
2019-03-09T10:08:51.679Z,10.90
2019-03-09T10:11:19.362Z,11.00
2019-03-09T10:13:47.096Z,11.00
2019-03-09T10:16:14.894Z,11.10
2019-03-09T10:18:42.550Z,11.10
2019-03-09T10:21:10.339Z,11.10
2019-03-09T10:23:38.214Z,11.10
2019-03-09T10:26:06.026Z,11.10
2019-03-09T10:28:33.709Z,11.20
2019-03-09T10:31:01.402Z,11.50
2019-03-09T10:33:29.206Z,11.50
2019-03-09T10:35:57.046Z,11.30
2019-03-09T10:38:24.985Z,11.30
2019-03-09T10:40:52.692Z,11.30
2019-03-09T10:43:20.517Z,11.30
2019-03-09T10:45:49.691Z,11.40
2019-03-09T10:48:17.451Z,11.40
2019-03-09T10:50:45.137Z,11.40
2019-03-09T10:53:12.834Z,11.40
2019-03-09T10:55:42.547Z,11.40
2019-03-09T10:58:10.359Z,11.40
2019-03-09T11:00:38.090Z,11.40
2019-03-09T11:03:05.868Z,11.40
2019-03-09T11:05:33.719Z,11.40
2019-03-09T11:08:01.423Z,11.30
2019-03-09T11:10:29.134Z,11.30
2019-03-09T11:12:57.054Z,11.30
2019-03-09T11:15:24.906Z,11.50
2019-03-09T11:17:52.657Z,11.60
2019-03-09T11:20:21.776Z,11.60
2019-03-09T11:22:49.781Z,11.70
2019-03-09T11:25:17.544Z,11.80
2019-03-09T11:27:47.022Z,11.70
2019-03-09T11:30:17.223Z,11.60
2019-03-09T11:32:45.026Z,11.80
2019-03-09T11:35:12.775Z,11.80
2019-03-09T11:37:40.493Z,11.90
2019-03-09T11:40:08.208Z,11.90
2019-03-09T11:42:36.134Z,11.90
2019-03-09T11:45:05.154Z,11.90
2019-03-09T11:47:32.899Z,12.00
2019-03-09T11:50:00.790Z,12.00
2019-03-09T11:52:29.338Z,12.00
2019-03-09T11:54:57.186Z,11.80
2019-03-09T11:57:24.902Z,11.80
2019-03-09T11:59:52.565Z,11.90
2019-03-09T12:02:20.417Z,11.70
2019-03-09T12:04:48.089Z,11.60
2019-03-09T12:07:15.861Z,11.60
2019-03-09T12:09:43.628Z,11.60
2019-03-09T12:12:11.330Z,11.50
2019-03-09T12:14:39.099Z,11.50
2019-03-09T12:17:12.492Z,11.70
2019-03-09T12:19:38.414Z,11.70
2019-03-09T12:22:06.190Z,11.70
2019-03-09T12:24:33.997Z,11.80
2019-03-09T12:27:01.689Z,11.80
2019-03-09T12:29:29.417Z,11.80
2019-03-09T12:31:57.078Z,11.80
2019-03-09T12:34:25.796Z,11.80
2019-03-09T12:36:53.501Z,11.80
2019-03-09T12:39:21.252Z,11.90
2019-03-09T12:41:48.968Z,11.80
2019-03-09T12:44:16.801Z,11.80
2019-03-09T12:46:44.528Z,11.80
2019-03-09T12:49:12.313Z,11.80
2019-03-09T12:51:40.144Z,12.00
2019-03-09T12:54:07.925Z,12.00
2019-03-09T12:56:35.873Z,11.80
2019-03-09T12:59:04.774Z,11.80
2019-03-09T13:01:32.545Z,11.70
2019-03-09T13:04:00.250Z,11.60
2019-03-09T13:06:28.704Z,11.80
2019-03-09T13:08:56.445Z,11.80
2019-03-09T13:11:24.184Z,11.70
2019-03-09T13:13:52.018Z,11.60
2019-03-09T13:16:20.799Z,11.60
2019-03-09T13:18:48.526Z,11.60
2019-03-09T13:21:16.365Z,11.60
2019-03-09T13:23:44.158Z,11.70
2019-03-09T13:26:11.834Z,11.70
2019-03-09T13:28:39.589Z,11.60
2019-03-09T13:31:07.297Z,11.40
2019-03-09T13:33:34.941Z,11.10
2019-03-09T13:36:02.614Z,11.00
2019-03-09T13:38:30.386Z,11.00
2019-03-09T13:40:58.117Z,11.00
2019-03-09T13:43:25.874Z,11.10
2019-03-09T13:45:53.570Z,11.10
2019-03-09T13:48:21.218Z,11.10
2019-03-09T13:50:48.940Z,11.10
2019-03-09T13:53:17.083Z,11.10
2019-03-09T13:55:44.763Z,10.80
2019-03-09T13:58:12.420Z,10.70
2019-03-09T14:00:40.988Z,10.70
2019-03-09T14:03:08.869Z,10.80
2019-03-09T14:05:36.578Z,10.90
2019-03-09T14:08:04.280Z,10.90
2019-03-09T14:10:32.064Z,11.00
2019-03-09T14:12:59.854Z,11.00
2019-03-09T14:15:28.562Z,11.00
2019-03-09T14:17:56.238Z,11.10
2019-03-09T14:20:24.017Z,11.00
2019-03-09T14:22:51.689Z,11.10
2019-03-09T14:25:19.393Z,11.20
2019-03-09T14:27:47.053Z,11.20
2019-03-09T14:30:14.905Z,11.10
2019-03-09T14:32:42.544Z,11.00
2019-03-09T14:35:10.338Z,10.90
2019-03-09T14:37:39.017Z,11.10
2019-03-09T14:40:07.448Z,11.00
2019-03-09T14:42:35.274Z,11.00
2019-03-09T14:45:03.528Z,11.20
2019-03-09T14:47:31.305Z,11.20
2019-03-09T14:49:59.029Z,11.20
2019-03-09T14:52:26.782Z,11.20
2019-03-09T14:54:54.591Z,11.30
2019-03-09T14:57:22.369Z,11.30
2019-03-09T14:59:51.109Z,11.40
2019-03-09T15:02:18.956Z,11.40
2019-03-09T15:04:46.615Z,11.50
2019-03-09T15:07:14.306Z,11.50
2019-03-09T15:09:41.994Z,11.60
2019-03-09T15:12:09.749Z,11.60
2019-03-09T15:14:37.595Z,11.70
2019-03-09T15:17:05.348Z,11.70
2019-03-09T15:19:33.028Z,11.70
2019-03-09T15:22:00.751Z,11.70
2019-03-09T15:24:29.429Z,11.70
2019-03-09T15:26:57.094Z,11.70
2019-03-09T15:29:24.744Z,11.70
2019-03-09T15:31:52.422Z,11.70
2019-03-09T15:34:20.127Z,11.70
2019-03-09T15:36:47.794Z,11.80
2019-03-09T15:39:15.378Z,11.80
2019-03-09T15:41:43.906Z,11.80
2019-03-09T15:44:11.625Z,11.70
2019-03-09T15:46:39.311Z,11.80
2019-03-09T15:49:07.649Z,11.80
2019-03-09T15:51:35.362Z,11.80
2019-03-09T15:54:03.039Z,11.90
2019-03-09T15:56:30.864Z,12.00
2019-03-09T15:58:58.578Z,12.00
2019-03-09T16:01:26.305Z,12.00
2019-03-09T16:03:54.021Z,12.10
2019-03-09T16:06:21.820Z,12.00
2019-03-09T16:08:49.537Z,12.10
2019-03-09T16:11:17.295Z,12.20
2019-03-09T16:13:45.325Z,12.20
2019-03-09T16:16:13.150Z,12.20
2019-03-09T16:18:40.893Z,12.20
2019-03-09T16:21:08.622Z,12.30
2019-03-09T16:23:36.409Z,12.40
2019-03-09T16:26:04.137Z,12.30
2019-03-09T16:28:31.813Z,12.30
2019-03-09T16:30:59.538Z,12.30
2019-03-09T16:33:27.286Z,12.40
2019-03-09T16:35:55.193Z,12.30
2019-03-09T16:38:22.945Z,12.30
2019-03-09T16:40:50.666Z,12.30
2019-03-09T16:43:18.496Z,12.30
2019-03-09T16:45:46.292Z,12.40
2019-03-09T16:48:14.022Z,12.40
2019-03-09T16:50:41.913Z,12.40
2019-03-09T16:53:09.669Z,12.40
2019-03-09T16:55:37.342Z,12.40
2019-03-09T16:58:05.071Z,12.40
2019-03-09T17:00:32.800Z,12.30
2019-03-09T17:03:00.732Z,12.40
2019-03-09T17:05:28.446Z,12.30
2019-03-09T17:07:56.256Z,12.30
2019-03-09T17:10:24.034Z,12.40
2019-03-09T17:12:53.849Z,12.40
2019-03-09T17:15:21.580Z,12.40
2019-03-09T17:18:00.742Z,12.40
2019-03-09T17:20:41.522Z,12.30
2019-03-09T17:23:11.275Z,12.50
2019-03-09T17:25:38.947Z,12.40
2019-03-09T17:28:29.267Z,12.40
2019-03-09T17:31:21.712Z,12.40
2019-03-09T17:41:38.988Z,12.30
2019-03-09T17:44:25.164Z,12.40
2019-03-09T17:47:11.031Z,12.40
2019-03-09T17:49:57.063Z,12.50
2019-03-09T17:52:43.192Z,12.50
2019-03-09T17:55:29.182Z,12.50
2019-03-09T17:58:15.236Z,12.40
2019-03-09T18:00:44.819Z,12.50
2019-03-09T18:03:13.627Z,12.70
2019-03-09T18:05:41.373Z,12.80
2019-03-09T18:08:09.023Z,12.70
2019-03-09T18:10:45.614Z,12.70
2019-03-09T18:13:13.322Z,12.60
2019-03-09T18:15:41.003Z,12.50
2019-03-09T18:18:09.329Z,12.50
2019-03-09T18:20:37.913Z,12.50
2019-03-09T18:23:05.600Z,12.50
2019-03-09T18:25:33.319Z,12.50
2019-03-09T18:28:01.296Z,12.50
2019-03-09T18:30:28.963Z,12.60
2019-03-09T18:32:56.614Z,12.50
2019-03-09T18:35:24.316Z,12.60
2019-03-09T18:37:51.940Z,12.60
2019-03-09T18:40:19.692Z,12.50
2019-03-09T18:42:47.365Z,12.50
2019-03-09T18:45:15.258Z,12.60
2019-03-09T18:47:42.930Z,12.60
2019-03-09T18:50:10.703Z,12.50
2019-03-09T18:52:38.568Z,12.50
2019-03-09T18:55:06.351Z,12.60
2019-03-09T18:57:34.066Z,12.60
2019-03-09T19:00:01.731Z,12.60
2019-03-09T19:02:29.594Z,12.50
2019-03-09T19:04:57.253Z,12.50
2019-03-09T19:07:24.930Z,12.60
2019-03-09T19:09:52.561Z,12.50
2019-03-09T19:12:20.331Z,12.50
2019-03-09T19:14:48.062Z,12.60
2019-03-09T19:17:15.747Z,12.50
2019-03-09T19:19:43.465Z,12.40
2019-03-09T19:22:11.157Z,12.60
2019-03-09T19:24:38.849Z,12.60
2019-03-09T19:27:06.641Z,12.60
2019-03-09T19:29:34.341Z,12.60
2019-03-09T19:32:01.994Z,12.60
2019-03-09T19:34:30.793Z,12.60
2019-03-09T19:36:59.449Z,12.50
2019-03-09T19:39:27.256Z,12.50
2019-03-09T19:41:54.998Z,12.50
2019-03-09T19:44:22.728Z,12.60
2019-03-09T19:46:50.418Z,12.60
2019-03-09T19:49:18.069Z,12.70
2019-03-09T19:51:45.855Z,12.70
2019-03-09T19:54:13.590Z,12.80
2019-03-09T19:56:41.513Z,12.80
2019-03-09T19:59:09.186Z,12.80
2019-03-09T20:01:36.854Z,12.80
2019-03-09T20:04:04.569Z,12.90
2019-03-09T20:06:32.260Z,12.90
2019-03-09T20:09:04.950Z,12.90
2019-03-09T20:11:33.621Z,12.90
2019-03-09T20:14:01.351Z,12.80
2019-03-09T20:16:28.996Z,12.90
2019-03-09T20:18:56.621Z,12.90
2019-03-09T20:21:24.274Z,12.90
2019-03-09T20:23:51.949Z,12.80
2019-03-09T20:26:19.629Z,12.80
2019-03-09T20:28:47.357Z,12.70
2019-03-09T20:31:15.014Z,12.70
2019-03-09T20:33:42.747Z,12.70
2019-03-09T20:36:10.429Z,12.80
2019-03-09T20:38:38.302Z,12.90
2019-03-09T20:41:06.007Z,12.80
2019-03-09T20:43:33.704Z,12.80
2019-03-09T20:46:01.444Z,12.80
2019-03-09T20:48:30.283Z,12.80
2019-03-09T20:50:57.979Z,12.90
2019-03-09T20:53:25.834Z,12.90
2019-03-09T20:55:53.536Z,13.00
2019-03-09T20:58:21.225Z,12.90
2019-03-09T21:00:48.950Z,12.90
2019-03-09T21:03:16.604Z,12.90
2019-03-09T21:05:44.288Z,13.00
2019-03-09T21:08:11.943Z,13.00
2019-03-09T21:10:39.633Z,13.00
2019-03-09T21:13:07.430Z,13.00
2019-03-09T21:15:35.249Z,13.00
2019-03-09T21:18:03.322Z,12.90
2019-03-09T21:20:31.069Z,12.80
2019-03-09T21:22:58.826Z,12.80
2019-03-09T21:25:26.614Z,12.90
2019-03-09T21:27:54.343Z,13.00
2019-03-09T21:30:22.087Z,13.10
2019-03-09T21:32:49.811Z,13.10
2019-03-09T21:35:17.617Z,13.00
2019-03-09T21:37:45.422Z,12.90
2019-03-09T21:40:13.227Z,12.90
2019-03-09T21:42:41.011Z,13.00
2019-03-09T21:45:08.809Z,13.00
2019-03-09T21:47:36.508Z,13.00
2019-03-09T21:50:04.769Z,13.00
2019-03-09T21:52:32.759Z,12.90
2019-03-09T21:55:01.446Z,12.90
2019-03-09T21:57:29.127Z,12.90
2019-03-09T21:59:56.824Z,12.90
2019-03-09T22:02:24.529Z,12.90
2019-03-09T22:04:52.199Z,13.00
2019-03-09T22:07:19.986Z,13.00
2019-03-09T22:09:47.798Z,13.00
2019-03-09T22:12:15.650Z,12.90
2019-03-09T22:14:43.340Z,12.80
2019-03-09T22:17:11.001Z,12.90
2019-03-09T22:19:38.704Z,12.90
2019-03-09T22:22:06.388Z,12.90
2019-03-09T22:24:34.074Z,12.90
2019-03-09T22:27:01.796Z,13.00
2019-03-09T22:29:29.511Z,13.00
2019-03-09T22:31:57.242Z,13.00
2019-03-09T22:34:25.019Z,13.00
2019-03-09T22:36:52.718Z,13.00
2019-03-09T22:39:20.659Z,13.00
2019-03-09T22:41:48.369Z,13.00
2019-03-09T22:44:18.483Z,12.90
2019-03-09T22:46:45.701Z,12.90
2019-03-09T22:49:14.238Z,13.00
2019-03-09T22:51:41.906Z,13.00
2019-03-09T22:54:09.617Z,13.10
2019-03-09T22:56:37.238Z,13.20
2019-03-09T22:59:04.945Z,13.30
2019-03-09T23:01:32.697Z,13.30
2019-03-09T23:04:00.751Z,13.30
2019-03-09T23:06:28.436Z,13.20
2019-03-09T23:08:56.117Z,13.10
2019-03-09T23:11:23.805Z,13.10
2019-03-09T23:13:51.513Z,13.10
2019-03-09T23:16:19.220Z,13.10
2019-03-09T23:18:46.861Z,13.20
2019-03-09T23:21:14.697Z,13.20
2019-03-09T23:23:42.385Z,13.10
2019-03-09T23:26:10.197Z,13.20
2019-03-09T23:28:46.598Z,13.20
2019-03-09T23:31:14.461Z,13.10
2019-03-09T23:33:45.224Z,13.20
2019-03-09T23:36:12.903Z,13.20
2019-03-09T23:38:40.716Z,13.30
2019-03-09T23:41:08.421Z,13.20
2019-03-09T23:43:36.070Z,13.30
2019-03-09T23:46:04.790Z,13.30
2019-03-09T23:48:32.536Z,13.30
2019-03-09T23:51:00.177Z,13.20
2019-03-09T23:53:28.010Z,13.20
2019-03-09T23:55:55.673Z,13.10
2019-03-09T23:58:23.377Z,13.10
